Terminal Aerodrome Forecast
Issued by NWS Lake Charles, LA

Current Version | Previous Version | Text Only | Print | Product List | Glossary On
Versions: 1 2 3 4 5 6 7 8 9 10 11 12 13 14 15 16 17 18 19 20 21 22 23 24 25 26 27 28 29
000
FTUS44 KLCH 202115 AAB
TAFBPT
TAF AMD
KBPT 202115Z 2021/2118 36011G18KT P6SM VCSH SCT060 OVC080
     FM202300 VRB06KT P6SM -SHRA OVC015
     FM210300 VRB03KT 5SM BR VCSH OVC015
      TEMPO 2103/2107 2SM SHRA OVC007
     FM210800 VRB03KT 1SM BR OVC007
     FM211500 VRB03KT 4SM BR BKN015=

USA.gov is the U.S. government's official web portal to all federal, state and local government web resources and services.